This is the latest recevied weather packets stored in our database for station/object CE3TL-WX. If no packets are shown the sender has not sent any weather packets the latest 10 day(s).
| Time | Temp. | Humidity | Pressure | Rain* | Wind** | Luminosity | Snow |
|---|---|---|---|---|---|---|---|
| 1777761653 | 17.78° C | 44% | 1023.5 hPa | - | - | - | - |
| 1777761120 | 18.33° C | 43% | 1023.7 hPa | - | - | - | - |
| 1777760585 | 18.89° C | 43% | 1023.5 hPa | - | - | - | - |
| 1777760052 | 18.89° C | 41% | 1023.4 hPa | - | - | - | - |
| 1777759517 | 19.44° C | 40% | 1023.5 hPa | - | - | - | - |
| 1777758982 | 20° C | 37% | 1023.3 hPa | - | - | - | - |
| 1777758450 | 20.56° C | 33% | 1023.1 hPa | - | - | - | - |
| 1777757914 | 21.67° C | 32% | 1023 hPa | - | - | - | - |
| 1777757379 | 21.67° C | 31% | 1022.8 hPa | - | - | - | - |
| 1777756844 | 21.67° C | 33% | 1023 hPa | - | - | - | - |
| 1777756309 | 21.67° C | 33% | 1022.9 hPa | - | - | - | - |
| 1777755774 | 21.67° C | 39% | 1022.9 hPa | - | - | - | - |
| 1777754688 | 21.67° C | 36% | 1022.5 hPa | - | - | - | - |
| 1777754154 | 21.11° C | 49% | 1022.7 hPa | - | - | - | - |
| 1777753620 | 21.67° C | 40% | 1022.5 hPa | - | - | - | - |
| 1777753087 | 21.67° C | 43% | 1022.7 hPa | - | - | - | - |
| 1777752553 | 21.11° C | 39% | 1022.7 hPa | - | - | - | - |
| 1777752019 | 20.56° C | 45% | 1023 hPa | - | - | - | - |
| 1777751486 | 21.11° C | 41% | 1023 hPa | - | - | - | - |
| 1777750951 | 20.56° C | 49% | 1023.1 hPa | - | - | - | - |
| 1777750416 | 21.11° C | 42% | 1022.9 hPa | - | - | - | - |
| 1777749883 | 20.56° C | 50% | 1022.9 hPa | - | - | - | - |
| 1777749349 | 20.56° C | 44% | 1022.7 hPa | - | - | - | - |
| 1777748816 | 20.56° C | 48% | 1022.9 hPa | - | - | - | - |
| 1777748281 | 20.56° C | 47% | 1022.8 hPa | - | - | - | - |
* Rain since midnight (hover to see other rain measurements)
** Current wind speed in m/s (hover to see current wind gust speed)